aviador You're here:

KSSF Decoded Metar

S ANTONIO/STINSN in TX, USA
Report Time2018-07-22 13:53:00
UTC Time2018-07-22 14:12:38
Flight Rules vfr VFR
Wind180° at 04 kt
W.Decomp.*RWY 14: 3.4 kt HW 2.1 kt RCW
RWY 09: 0.6 kt HW 4.0 kt RCW
W.Rank180° ranks 18
Current wind is below 180° avg. (7.3)
Visibility9999 m
Phenomena:N/A
Clouds:N/A
Expected CloudBase > 400 ft AGL from Temp-Dew spread
CeilingNone
Temp28°C (ISA +14)
Dew Point27°C (94% RH)
Heat Index34.5°C
QNH1016 hPa
Density Alt2,572 ft
Elevation577 ft
Report Wrong Elevation
Raw Report
KSSF 221353Z 18004KT 9SM CLR 28/27 A2999 RMK AO2 SLP140 T02780267
$=

Extra information for KSSF:More info

Metar Taf Metar & Taf Last 4 Metars F.Rules Stats Wind Profile Meteogram Temp Stats Airport Information Weather charts Add Link Nearby VenuesMetar ALERT Operation Metar Decoded Social comments

AIRNAV info for KSSF